WETTERDATEN

GESTERN
Time Temp. Taup. r.Fe. Windrich Windstärke Windböe Druck 1h Prec. 24h Prec.
00:20 16.6 12.9 79 221 1.7 3.1 1018.3 0.0000 0.0000
00:29 16.4 12.8 79 225 1.7 2.8 1018.4 0.0000 0.0000
00:39 16.2 12.6 79 223 1.7 3.1 1018.5 0.0000 0.0000
00:50 16.1 12.7 80 222 1.7 3.1 1018.4 0.0000 0.0000
01:00 15.9 12.5 80 221 1.7 3.1 1018.4 0.0000 0.0000
01:10 15.8 12.4 80 222 1.7 3.3 1018.3 0.0000 0.0000
01:20 15.6 12.2 80 222 1.7 2.8 1018.3 0.0000 0.0000
01:30 15.5 12.1 80 222 1.7 3.1 1018.2 0.0000 0.0000
01:40 15.4 12.2 81 222 1.7 2.2 1018.2 0.0000 0.0000
01:50 15.3 12.1 81 219 1.4 2.2 1018 0.0000 0.0000
02:01 15.1 11.9 81 221 1.4 2.2 1017.8 0.0000 0.0000
02:11 15 11.8 81 225 1.4 2.2 1018 0.0000 0.0000
02:20 14.9 11.7 81 222 1.7 2.2 1017.9 0.0000 0.0000
02:31 14.8 11.6 81 223 1.4 2.2 1017.9 0.0000 0.0000
02:41 14.6 11.6 82 222 1.4 2.2 1017.8 0.0000 0.0000
03:01 14.5 11.5 82 217 1.4 2.2 1017.6 0.0000 0.0000
03:12 14.4 11.4 82 220 1.4 2.2 1017.5 0.0000 0.0000
03:21 14.3 11.3 82 221 1.4 2.8 1017.5 0.0000 0.0000
03:31 14.2 11.4 83 220 1.4 1.9 1017.3 0.0000 0.0000
03:41 14.1 11.1 82 221 1.4 1.9 1017.3 0.0000 0.0000
03:52 14 11.2 83 223 1.1 1.9 1017.2 0.0000 0.0000
04:02 13.9 11.1 83 222 1.4 2.2 1017.5 0.0000 0.0000
04:11 13.9 11.1 83 217 1.4 2.2 1017.3 0.0000 0.0000
04:22 13.8 11 83 223 1.1 1.9 1017.3 0.0000 0.0000
04:32 13.7 10.9 83 223 1.1 1.9 1017.3 0.0000 0.0000
04:42 13.6 10.8 83 221 1.1 1.7 1017.2 0.0000 0.0000
04:52 13.6 10.8 83 220 1.1 1.9 1017.2 0.0000 0.0000
05:03 13.5 10.7 83 221 1.1 1.9 1017.1 0.0000 0.0000
05:12 13.5 10.7 83 223 1.1 1.9 1017.2 0.0000 0.0000
05:22 13.4 10.6 83 219 1.1 1.9 1017.2 0.0000 0.0000
05:33 13.4 10.8 84 219 1.1 1.9 1017.1 0.0000 0.0000
05:43 13.3 10.7 84 221 1.1 1.7 1017.1 0.0000 0.0000
05:53 13.3 10.7 84 219 1.1 1.7 1017.1 0.0000 0.0000
06:02 13.3 10.7 84 220 1.1 1.7 1017.1 0.0000 0.0000
06:13 13.4 10.8 84 213 0.6 1.4 1017 0.0000 0.0000
06:23 13.5 11 85 171 0.6 1.1 1017.1 0.0000 0.0000
06:33 13.8 11.5 86 90 0.3 1.1 1017 0.0000 0.0000
06:43 14 11.7 86 199 1.4 5.3 1017 0.0000 0.0000
06:55 14.4 12.1 86 143 3.3 9.2 1017.1 0.0000 0.0000
07:06 14.7 12.4 86 85 6.4 10.3 1017.1 0.0000 0.0000
07:16 15 12.7 86 3.3 5.3 1017.2 0.0000 0.0000
07:26 15.4 13.1 86 0 0 1017.2 0.0000 0.0000
07:36 15.8 13.3 85 0 0 1017.3 0.0000 0.0000
07:47 16.2 13.7 85 0 0 1017.3 0.0000 0.0000
07:56 16.6 13.9 84 0 0 1017.3 0.0000 0.0000
08:06 17.1 14.4 84 304 3.9 8.3 1017.5 0.0000 0.0000
08:17 17.6 14.5 82 340 3.9 6.7 1017.5 0.0000 0.0000
08:27 18.2 14.9 81 332 3.3 6.9 1017.5 0.0000 0.0000
08:37 18.7 15.2 80 88 5.3 9.2 1017.3 0.0000 0.0000
08:46 19.2 15.5 79 96 5 9.2 1017.5 0.0000 0.0000
08:57 19.6 15.7 78 90 5.3 8.6 1017.3 0.0000 0.0000
09:07 20.2 16 77 107 5.8 8.6 1017.3 0.0000 0.0000
09:17 20.8 16.4 76 115 5 9.2 1017.3 0.0000 0.0000
09:27 21.6 16.6 73 154 4.7 7.8 1017.3 0.0000 0.0000
09:37 22.4 16.9 71 186 3.9 6.9 1017.2 0.0000 0.0000
09:47 23.2 17 68 195 3.1 5.3 1017.1 0.0000 0.0000
09:57 23.9 17.2 66 193 2.8 4.7 1017.1 0.0000 0.0000
10:05 24.4 17.2 64 166 4.7 11.1 1017 0.0000 0.0000
10:15 25.1 17.6 63 195 3.6 6.9 1017 0.0000 0.0000
10:25 25.6 17.8 62 253 4.7 12.8 1017.1 0.0000 0.0000
10:42 26.5 17.8 59 260 5 12.5 1016.7 0.0000 0.0000
10:58 27.1 18.1 58 253 4.7 13.3 1016.7 0.0000 0.0000
11:06 27.3 17.8 56 232 4.4 14.7 1016.8 0.0000 0.0000
11:18 28 18.4 56 239 6.4 17.5 1016.6 0.0000 0.0000
11:28 28.6 18.4 54 239 5.3 14.4 1016.5 0.0000 0.0000
11:38 29.3 19 54 249 4.7 11.4 1016.4 0.0000 0.0000
11:43 29.8 19.2 53 49 5.3 13.1 1016.3 0.0000 0.0000
11:54 30.1 18.2 49 35 5 10 1016.2 0.0000 0.0000
12:04 30.4 19.1 51 36 4.7 8.1 1016.2 0.0000 0.0000
12:14 31.6 19.6 49 36 5 7.5 1016.1 0.0000 0.0000
12:23 32.2 19.5 47 35 3.9 6.1 1016.1 0.0000 0.0000
12:34 32.9 19.7 46 47 5.8 10.3 1016 0.0000 0.0000
12:44 33.1 19.9 46 46 5.3 8.1 1016 0.0000 0.0000
12:54 33.4 19.8 45 64 4.4 8.6 1015.9 0.0000 0.0000
13:04 34.5 20.8 45 61 4.4 8.6 1015.9 0.0000 0.0000
13:14 35.2 20.7 43 53 3.9 6.7 1015.8 0.0000 0.0000
13:24 35.5 20.6 42 71 4.4 8.6 1015.7 0.0000 0.0000
13:34 35.9 20.2 40 73 3.6 6.9 1015.6 0.0000 0.0000
13:45 34.9 18.9 39 191 2.8 6.7 1015.6 0.0000 0.0000
13:55 34.4 18.9 40 102 3.3 7.8 1015.4 0.0000 0.0000
14:04 33.8 18.7 41 210 2.2 4.7 1015.4 0.0000 0.0000
14:15 33.9 18.4 40 223 2.2 3.9 1015.2 0.0000 0.0000
14:25 34.3 18.8 40 207 2.8 5 1015.2 0.0000 0.0000
14:35 33.9 18.8 41 207 1.4 3.3 1015 0.0000 0.0000
14:45 33.4 18.7 42 209 1.1 1.9 1014.9 0.0000 0.0000
14:56 33.2 18.2 41 210 1.7 3.1 1014.8 0.0000 0.0000
15:05 32.8 17.8 41 217 2.2 4.4 1014.8 0.0000 0.0000
15:15 32.3 17.4 41 187 1.1 3.3 1014.7 0.0000 0.0000
15:25 31.4 17.7 44 183 1.1 2.2 1014.7 0.0000 0.0000
15:36 31 18 46 199 1.7 3.3 1014.6 0.0000 0.0000
15:46 30.7 17.1 44 199 1.7 2.8 1014.5 0.0000 0.0000
15:56 30.9 17.2 44 191 1.7 3.3 1014.6 0.0000 0.0000
16:06 30.5 17.2 45 192 1.9 3.9 1014.6 0.0000 0.0000
16:16 30.4 16.8 44 194 1.9 4.4 1014.5 0.0000 0.0000
16:26 30.3 16.7 44 198 1.9 3.3 1014.4 0.0000 0.0000
16:36 30.1 16.9 45 198 1.4 3.1 1014.3 0.0000 0.0000
16:47 29.8 16.9 46 198 1.7 3.3 1014.2 0.0000 0.0000
16:57 29.5 17.3 48 196 1.7 3.1 1014.2 0.0000 0.0000
17:07 29.3 16.8 47 192 1.7 3.3 1013.9 0.0000 0.0000
17:17 29.3 16.5 46 189 1.9 3.6 1014 0.0000 0.0000
17:27 29.3 16.5 46 191 1.9 3.9 1013.9 0.0000 0.0000
17:37 29.2 16.4 46 191 1.7 2.8 1013.8 0.0000 0.0000
17:47 29.1 16.3 46 196 1.7 3.3 1013.9 0.0000 0.0000
17:58 29 16.2 46 200 1.4 2.8 1013.6 0.0000 0.0000
18:08 28.9 16.1 46 201 1.4 2.8 1013.5 0.0000 0.0000
18:17 28.9 16.8 48 199 1.4 3.1 1013.5 0.0000 0.0000
18:27 28.8 18.6 54 205 1.1 1.9 1013.5 0.0000 0.0000
18:38 28.7 18.5 54 196 1.1 1.9 1013.7 0.0000 0.0000
18:48 28.7 18.8 55 203 1.1 2.2 1013.6 0.0000 0.0000
18:58 28.6 19.5 58 207 1.1 1.9 1013.6 0.0000 0.0000
19:08 28.4 19.9 60 201 1.1 2.2 1013.6 0.0000 0.0000
19:18 28.3 20.1 61 210 1.1 1.9 1013.5 0.0000 0.0000
19:28 28.1 19.9 61 207 1.1 1.7 1013.3 0.0000 0.0000
19:38 28 19 58 199 1.4 2.2 1013.3 0.0000 0.0000
19:49 27.9 19.7 61 206 1.1 1.9 1013.4 0.0000 0.0000
19:59 27.7 18.7 58 211 2.2 3.6 1013.3 0.0000 0.0000
20:09 27.5 19.3 61 213 1.9 3.6 1013.3 0.0000 0.0000
20:18 27.3 19.4 62 215 2.2 3.3 1013.2 0.0000 0.0000
20:29 27 19.6 64 214 2.2 3.6 1013.3 0.0000 0.0000
20:39 26.7 19.3 64 252 2.8 3.9 1013.2 0.0000 0.0000
20:49 26.4 18.8 63 248 2.2 3.6 1013.1 0.0000 0.0000
20:59 26.1 18 61 251 2.2 3.3 1013.1 0.0000 0.0000
21:10 25.8 18.2 63 257 1.9 3.3 1013.2 0.0000 0.0000
21:20 25.4 18.6 66 250 1.9 3.1 1013.1 0.0000 0.0000
21:29 24.9 18.6 68 221 1.7 2.2 1013.3 0.0000 0.0000
21:40 24.4 18.3 69 221 1.7 3.1 1013.3 0.0000 0.0000
21:50 23.8 17.8 69 221 1.7 2.8 1013.4 0.0000 0.0000
22:00 23.3 17.3 69 221 1.7 2.8 1013.4 0.0000 0.0000
22:10 22.8 17.3 71 214 1.7 3.1 1013.4 0.0000 0.0000
22:21 22.3 17 72 222 1.7 3.1 1013.3 0.0000 0.0000
22:30 21.9 16.8 73 220 1.7 3.1 1013.2 0.0000 0.0000
22:40 21.5 16.5 73 221 1.7 3.1 1013.2 0.0000 0.0000
22:51 21.1 16.3 74 221 1.7 2.8 1013.3 0.0000 0.0000
23:01 20.8 16 74 225 1.7 2.8 1013.2 0.0000 0.0000
23:11 20.5 15.9 75 223 1.7 2.8 1013.1 0.0000 0.0000
23:31 19.9 15.5 76 220 1.7 3.1 1013 0.0000 0.0000
23:41 19.8 15.7 77 220 1.7 2.8 1013.1 0.0000 0.0000
23:51 19.5 15.6 78 223 1.7 2.8 1013.1 0.0000 0.0000

TAGESSTATISTIK

2019-06-18
TEMPERATUR
MITTEL
23.3
MAXIMUM
35.9
13:34
MINIMUM
13.3
05:43
LUFTDRUCK
MITTEL
1015.7
MAXIMUM
1018.5
00:39
MINIMUM
1013.0
23:31
TAUPUNKT
MITTEL
15.8
MAXIMUM
20.8
13:04
MINIMUM
10.6
05:22
FEUCHTIGKEIT
MITTEL
66
MAXIMUM
86
06:33
MINIMUM
39
13:45
WINDSTÄRKE
MITTEL
2.3
MAXIMUM
6.4
07:06
WINDBÖE
MITTEL
4.4
MAXIMUM
17.5
11:18
WINDRICHTUNG
VORHERRSCHENDE
SW
50.7%
N
0.7
NO
7.5
O
6.7
SO
2.2
S
23.1
SW
50.7
W
6.7
NW
1.5
NIEDERSCHLAG
REGEN STUNDE
0.0
REGEN TAG
0.0
TEMPERATUR (°C)
MINIMUM
13.3
MAXIMUM
35.9
MITTEL
23.3
LUFTDRUCK (hpa)
MINIMUM
1013.0
MAXIMUM
1018.5
MITTEL
1015.7
MESSGERÄT